Nisku, Canada
Current Conditions -  °F | °C
As of 3:00 PM on Thursday 27 Nov 2014 (Local Time) from CYEG Reporting Station
Light Snow Light Snow  
Wind Chill: -23°   Ceiling: 1200
Heat Index: -14°   Visibility: 0.75mi
Dew Point: -17°   Wind: 13mph
Humidity: 79%   Direction: 30°NNE
Pressure: 29.97"   Gusts: NA
Location:  53.33°N, 113.53°W
Report Text: CYEG 272200Z 03011KT 3/4SM R02/4500FT/U -SN DRSN OVC012 M14/M17 A2997 RMK SN7SC1 SLP202
Loading
Personal Weather Stations






























Interactive Weather Map New forecast layout! Learn more

10-Day Weather Forecast

Advertisements
Track Severe Weather on mobile